Time;durP1;ratioP1;P1;durP2;ratioP2;P2;SDS_P1;SDS_P2;PMS_P1;PMS_P2;Temp;Humidity;BMP_temperature;BMP_pressure;BME280_temperature;BME280_humidity;BME280_pressure;Samples;Min_cycle;Max_cycle;Signal;HPM_P1;HPM_P2
2022/11/27 00:00:58;;;;;;;0.00;0.00;;;;;;;11.06;100.00;100213.53;6218634;22;20057;-79
2022/11/27 00:03:27;;;;;;;0.00;0.00;;;;;;;11.00;100.00;100194.34;6269670;22;20008;-78
2022/11/27 00:05:57;;;;;;;0.00;0.00;;;;;;;11.09;100.00;100196.56;6245401;22;20103;-78
2022/11/27 00:08:34;;;;;;;0.00;0.00;;;;;;;11.06;100.00;100197.09;6268658;22;20435;-77
2022/11/27 00:11:06;;;;;;;0.00;0.00;;;;;;;11.12;100.00;100217.91;6270890;22;20430;-79
2022/11/27 00:13:31;;;;;;;0.00;0.00;;;;;;;11.05;100.00;100187.25;6268334;22;20003;-79
2022/11/27 00:15:59;;;;;;;0.00;0.00;;;;;;;11.04;100.00;100169.19;6270120;22;20434;-78
2022/11/27 00:18:25;;;;;;;0.10;0.10;;;;;;;11.07;100.00;100185.03;6245416;22;20046;-79
2022/11/27 00:20:50;;;;;;;0.00;0.00;;;;;;;11.06;100.00;100186.97;6241346;22;20008;-78
2022/11/27 00:23:18;;;;;;;0.00;0.00;;;;;;;11.10;100.00;100195.47;6272509;22;20004;-79
2022/11/27 00:25:51;;;;;;;0.00;0.00;;;;;;;11.13;100.00;100183.97;6242220;22;20781;-79
2022/11/27 00:28:17;;;;;;;0.00;0.00;;;;;;;11.17;100.00;100196.00;6272217;22;20003;-78
2022/11/27 00:30:42;;;;;;;0.00;0.00;;;;;;;11.15;100.00;100185.31;6268251;22;20015;-78
2022/11/27 00:33:08;;;;;;;0.00;0.00;;;;;;;11.17;100.00;100182.31;6271037;22;20315;-78
2022/11/27 00:35:33;;;;;;;0.00;0.00;;;;;;;11.23;100.00;100185.84;6269208;22;20034;-79
2022/11/27 00:38:01;;;;;;;0.00;0.00;;;;;;;11.21;100.00;100193.53;6245719;22;20008;-78
2022/11/27 00:40:29;;;;;;;0.00;0.00;;;;;;;11.20;100.00;100179.03;6245469;22;20016;-78
2022/11/27 00:42:54;;;;;;;0.00;0.00;;;;;;;11.26;100.00;100186.13;6217144;22;20015;-81
2022/11/27 00:45:20;;;;;;;0.00;0.00;;;;;;;11.27;100.00;100181.47;6247005;22;20094;-76
2022/11/27 00:47:45;;;;;;;0.00;0.00;;;;;;;11.25;100.00;100176.28;6248049;22;20510;-77
2022/11/27 00:50:11;;;;;;;0.00;0.00;;;;;;;11.31;100.00;100191.59;6217860;22;20350;-77
2022/11/27 00:52:36;;;;;;;0.00;0.00;;;;;;;11.38;100.00;100176.81;6247197;22;20649;-76
2022/11/27 00:55:02;;;;;;;0.00;0.00;;;;;;;11.34;100.00;100179.25;6270768;22;20415;-78
2022/11/27 00:57:27;;;;;;;0.00;0.00;;;;;;;11.38;100.00;100163.13;6271984;22;20034;-78
2022/11/27 00:59:57;;;;;;;0.00;0.00;;;;;;;11.33;100.00;100169.41;6270873;22;20004;-79
2022/11/27 01:02:22;;;;;;;0.00;0.00;;;;;;;11.38;100.00;100165.84;6247682;22;20007;-81
2022/11/27 01:04:49;;;;;;;0.00;0.00;;;;;;;11.40;100.00;100164.47;6271389;22;20026;-78
2022/11/27 01:07:15;;;;;;;0.57;0.57;;;;;;;11.46;100.00;100173.47;6271067;22;20007;-77
2022/11/27 01:09:44;;;;;;;0.52;0.52;;;;;;;11.46;100.00;100168.00;6274168;22;20004;-79
2022/11/27 01:12:09;;;;;;;0.00;0.00;;;;;;;11.40;100.00;100155.44;6242678;22;20419;-78
2022/11/27 01:14:35;;;;;;;0.00;0.00;;;;;;;11.47;100.00;100170.47;6272628;22;20084;-78
2022/11/27 01:17:00;;;;;;;0.00;0.00;;;;;;;11.51;100.00;100163.34;6270404;22;20018;-79
2022/11/27 01:19:26;;;;;;;0.00;0.00;;;;;;;11.54;100.00;100175.66;6271031;22;20330;-78
2022/11/27 01:21:51;;;;;;;0.00;0.00;;;;;;;11.53;100.00;100168.53;6269941;22;20011;-78
2022/11/27 01:24:17;;;;;;;0.00;0.00;;;;;;;11.58;100.00;100174.00;6268265;22;20067;-79
2022/11/27 01:26:43;;;;;;;0.20;0.20;;;;;;;11.55;100.00;100180.03;6247628;22;20014;-78
2022/11/27 01:29:11;;;;;;;1.38;0.95;;;;;;;11.59;100.00;100188.50;6269676;22;20114;-77
2022/11/27 01:31:36;;;;;;;0.52;0.32;;;;;;;11.50;100.00;100180.84;6272988;22;20057;-77
2022/11/27 01:34:06;;;;;;;0.00;0.00;;;;;;;11.59;100.00;100183.84;6268404;22;20385;-78
2022/11/27 01:36:32;;;;;;;0.00;0.00;;;;;;;11.67;100.00;100201.66;6271986;22;19988;-78
2022/11/27 01:38:58;;;;;;;0.00;0.00;;;;;;;11.66;100.00;100200.81;6265794;22;20004;-77
2022/11/27 01:41:33;;;;;;;0.00;0.00;;;;;;;11.64;100.00;100186.59;6268956;22;19999;-78
2022/11/27 01:44:23;;;;;;;0.00;0.00;;;;;;;11.67;100.00;100198.91;6269517;22;20007;-77
2022/11/27 01:47:12;;;;;;;0.00;0.00;;;;;;;11.61;100.00;100187.16;6269442;22;20105;-77
2022/11/27 01:49:47;;;;;;;0.00;0.00;;;;;;;11.61;100.00;100181.66;6266902;22;20007;-78
2022/11/27 01:52:26;;;;;;;0.00;0.00;;;;;;;11.64;100.00;100181.09;6271143;22;20387;-78
2022/11/27 01:55:17;;;;;;;0.00;0.00;;;;;;;11.59;100.00;100158.38;6270641;22;20074;-78
2022/11/27 01:57:50;;;;;;;0.00;0.00;;;;;;;11.59;100.00;100161.94;6271452;22;20785;-80
2022/11/27 02:00:19;;;;;;;0.00;0.00;;;;;;;11.60;100.00;100171.81;6267506;22;20000;-79
2022/11/27 02:02:52;;;;;;;0.20;0.20;;;;;;;11.63;100.00;100179.47;6268290;22;20004;-78
2022/11/27 02:05:21;;;;;;;0.22;0.20;;;;;;;11.69;100.00;100172.84;6267500;22;20011;-78
2022/11/27 02:07:47;;;;;;;0.00;0.00;;;;;;;11.70;100.00;100174.50;6270423;22;20334;-78
2022/11/27 02:10:15;;;;;;;0.00;0.00;;;;;;;11.67;100.00;100164.09;6269411;22;20007;-78
2022/11/27 02:13:02;;;;;;;0.00;0.00;;;;;;;11.74;100.00;100182.16;6267246;22;20008;-79
2022/11/27 02:15:57;;;;;;;0.00;0.00;;;;;;;11.78;100.00;100202.41;6266762;22;20031;-77
2022/11/27 02:18:44;;;;;;;0.00;0.00;;;;;;;11.79;100.00;100193.09;6266234;22;20018;-78
2022/11/27 02:21:17;;;;;;;0.00;0.00;;;;;;;11.76;100.00;100188.19;6273010;22;20315;-78
2022/11/27 02:24:09;;;;;;;0.00;0.00;;;;;;;11.78;100.00;100200.50;6270967;22;20117;-79
2022/11/27 02:26:39;;;;;;;0.00;0.00;;;;;;;11.83;100.00;100177.75;6266669;22;20003;-78
2022/11/27 02:29:10;;;;;;;0.00;0.00;;;;;;;11.81;100.00;100182.69;6269880;22;20887;-78
2022/11/27 02:32:00;;;;;;;0.00;0.00;;;;;;;11.86;100.00;100177.19;6271537;22;20342;-78
2022/11/27 02:34:47;;;;;;;0.00;0.00;;;;;;;11.85;100.00;100175.53;6269767;22;20012;-78
2022/11/27 02:37:31;;;;;;;0.00;0.00;;;;;;;11.87;100.00;100176.91;6271012;22;19999;-78
2022/11/27 02:40:10;;;;;;;0.00;0.00;;;;;;;11.88;100.00;100174.97;6271744;22;20049;-78
2022/11/27 02:43:18;;;;;;;0.10;0.10;;;;;;;11.87;100.00;100167.84;6267547;22;19999;-78
2022/11/27 02:45:47;;;;;;;0.00;0.00;;;;;;;11.89;100.00;100165.66;6256993;22;20008;-78
2022/11/27 02:48:19;;;;;;;0.00;0.00;;;;;;;11.84;100.00;100141.03;6263855;22;20007;-77
2022/11/27 02:50:47;;;;;;;1.33;1.23;;;;;;;11.82;100.00;100140.50;6272547;22;20445;-78
2022/11/27 02:53:18;;;;;;;0.10;0.10;;;;;;;11.86;100.00;100136.91;6266799;22;19995;-77
2022/11/27 02:55:44;;;;;;;0.00;0.00;;;;;;;11.85;100.00;100132.50;6269044;22;20004;-77
2022/11/27 02:58:15;;;;;;;0.00;0.00;;;;;;;11.88;100.00;100153.91;6265905;22;20008;-78
2022/11/27 03:00:43;;;;;;;0.00;0.00;;;;;;;11.80;100.00;100139.97;6269896;22;20103;-78
2022/11/27 03:03:12;;;;;;;0.00;0.00;;;;;;;11.80;100.00;100138.03;6269328;22;20007;-78
2022/11/27 03:05:42;;;;;;;0.00;0.00;;;;;;;11.83;100.00;100150.34;6268179;22;20012;-77
2022/11/27 03:08:24;;;;;;;0.00;0.00;;;;;;;11.82;100.00;100149.53;6267984;22;19999;-78
2022/11/27 03:11:04;;;;;;;0.00;0.00;;;;;;;11.91;100.00;100157.97;6271303;22;20007;-76
2022/11/27 03:13:36;;;;;;;0.00;0.00;;;;;;;11.92;100.00;100151.41;6266040;22;20102;-78
2022/11/27 03:16:41;;;;;;;0.00;0.00;;;;;;;11.96;100.00;100152.50;6270474;22;20023;-77
2022/11/27 03:19:27;;;;;;;0.00;0.00;;;;;;;12.02;100.00;100151.38;6247069;22;20034;-77
2022/11/27 03:21:58;;;;;;;0.00;0.00;;;;;;;12.03;100.00;100150.28;6264477;22;20839;-77
2022/11/27 03:24:28;;;;;;;0.00;0.00;;;;;;;12.09;100.00;100152.97;6269992;22;20027;-77
2022/11/27 03:26:57;;;;;;;0.00;0.00;;;;;;;12.09;100.00;100147.50;6265163;22;20075;-77
2022/11/27 03:29:29;;;;;;;0.00;0.00;;;;;;;12.15;100.00;100163.66;6244577;22;20019;-77
2022/11/27 03:32:04;;;;;;;0.00;0.00;;;;;;;12.15;100.00;100154.59;6267594;22;20008;-78
2022/11/27 03:34:31;;;;;;;0.00;0.00;;;;;;;12.21;100.00;100156.22;6269548;22;20062;-78
2022/11/27 03:36:57;;;;;;;0.00;0.00;;;;;;;12.20;100.00;100149.09;6270616;22;20450;-76
2022/11/27 03:39:23;;;;;;;0.00;0.00;;;;;;;12.24;100.00;100155.66;6264213;22;20011;-77
2022/11/27 03:42:13;;;;;;;0.00;0.00;;;;;;;12.27;100.00;100154.25;6242891;22;20039;-77
2022/11/27 03:44:57;;;;;;;0.00;0.00;;;;;;;12.29;100.00;100152.84;6270460;22;20315;-77
2022/11/27 03:48:07;;;;;;;0.00;0.00;;;;;;;12.31;100.00;100149.81;6264359;22;20004;-77
2022/11/27 03:50:53;;;;;;;0.00;0.00;;;;;;;12.30;100.00;100149.03;6270001;22;20018;-78
2022/11/27 03:53:25;;;;;;;0.00;0.00;;;;;;;12.28;100.00;100139.44;6269013;22;20007;-77
2022/11/27 03:56:31;;;;;;;0.00;0.00;;;;;;;12.27;100.00;100144.09;6266563;22;20034;-78
2022/11/27 03:59:19;;;;;;;0.20;0.15;;;;;;;12.28;100.00;100143.00;6270845;22;20000;-78
2022/11/27 04:01:44;;;;;;;0.00;0.00;;;;;;;12.31;100.00;100153.41;6270921;22;20009;-77
2022/11/27 04:04:10;;;;;;;0.10;0.10;;;;;;;12.22;100.00;100146.88;6267849;22;20094;-78
2022/11/27 04:06:35;;;;;;;0.98;0.35;;;;;;;12.19;100.00;100148.28;6266994;22;20439;-77
2022/11/27 04:09:08;;;;;;;1.08;0.55;;;;;;;12.19;100.00;100156.50;6270645;22;20000;-77
2022/11/27 04:11:34;;;;;;;0.00;0.00;;;;;;;12.14;100.00;100150.22;6267519;22;20010;-76
2022/11/27 04:13:59;;;;;;;0.00;0.00;;;;;;;12.11;100.00;100139.84;6245944;22;20011;-77
2022/11/27 04:16:24;;;;;;;0.00;0.00;;;;;;;12.15;100.00;100140.88;6267553;22;20014;-77
2022/11/27 04:18:57;;;;;;;0.00;0.00;;;;;;;12.14;100.00;100142.00;6244931;22;20000;-78
2022/11/27 04:21:23;;;;;;;0.00;0.00;;;;;;;12.14;100.00;100142.00;6269362;22;20008;-77
2022/11/27 04:23:48;;;;;;;0.00;0.00;;;;;;;12.15;100.00;100162.81;6272437;22;20092;-78
2022/11/27 04:26:14;;;;;;;0.00;0.00;;;;;;;12.07;100.00;100150.53;6269916;22;20016;-77
2022/11/27 04:28:39;;;;;;;0.00;0.00;;;;;;;12.11;100.00;100164.50;6240637;22;20031;-77
2022/11/27 04:31:05;;;;;;;0.00;0.00;;;;;;;12.15;100.00;100168.28;6270269;22;20107;-78
2022/11/27 04:33:30;;;;;;;0.00;0.00;;;;;;;12.12;100.00;100168.84;6243722;22;20392;-76
2022/11/27 04:35:58;;;;;;;0.00;0.00;;;;;;;12.15;100.00;100174.63;6265342;22;19999;-77
2022/11/27 04:38:26;;;;;;;0.00;0.00;;;;;;;12.12;100.00;100157.91;6273074;22;20008;-76
2022/11/27 04:40:56;;;;;;;0.00;0.00;;;;;;;12.11;100.00;100156.28;6270145;22;20000;-76
2022/11/27 04:43:22;;;;;;;0.00;0.00;;;;;;;12.15;100.00;100146.34;6248730;22;20448;-75
2022/11/27 04:45:47;;;;;;;0.00;0.00;;;;;;;12.17;100.00;100155.13;6268895;22;20664;-77
2022/11/27 04:48:12;;;;;;;0.00;0.00;;;;;;;12.14;100.00;100155.72;6272338;22;20007;-76
2022/11/27 04:50:38;;;;;;;0.00;0.00;;;;;;;12.10;100.00;100149.97;6268395;22;20008;-76
2022/11/27 04:53:06;;;;;;;0.00;0.00;;;;;;;12.14;100.00;100162.00;6269111;22;20018;-76
2022/11/27 04:55:31;;;;;;;0.00;0.00;;;;;;;12.13;100.00;100159.53;6271625;22;19999;-77
2022/11/27 04:57:59;;;;;;;0.00;0.00;;;;;;;12.11;100.00;100151.59;6214653;22;20723;-77
2022/11/27 05:00:27;;;;;;;0.00;0.00;;;;;;;12.13;100.00;100143.09;6244742;22;20011;-76
2022/11/27 05:02:55;;;;;;;0.00;0.00;;;;;;;12.07;100.00;100133.28;6239367;22;20007;-77
2022/11/27 05:05:20;;;;;;;0.00;0.00;;;;;;;12.02;100.00;100121.22;6268709;22;20019;-76
2022/11/27 05:07:46;;;;;;;0.00;0.00;;;;;;;12.08;100.00;100110.25;6265602;22;20331;-76
2022/11/27 05:10:14;;;;;;;0.00;0.00;;;;;;;12.00;100.00;100109.75;6269726;22;20011;-77
2022/11/27 05:12:39;;;;;;;0.00;0.00;;;;;;;12.03;100.00;100120.13;6245184;22;20004;-78
2022/11/27 05:15:07;;;;;;;0.00;0.00;;;;;;;12.09;100.00;100136.53;6240718;22;20015;-76
2022/11/27 05:17:42;;;;;;;0.00;0.00;;;;;;;12.02;100.00;100148.63;6269453;22;20000;-77
2022/11/27 05:20:08;;;;;;;0.00;0.00;;;;;;;12.03;100.00;100157.66;6240146;22;20003;-77
2022/11/27 05:22:33;;;;;;;0.00;0.00;;;;;;;12.05;100.00;100163.69;6270220;22;20090;-77
2022/11/27 05:24:59;;;;;;;0.00;0.00;;;;;;;12.04;100.00;100184.78;6265365;22;20470;-79
2022/11/27 05:27:27;;;;;;;0.00;0.00;;;;;;;12.00;100.00;100180.16;6270480;22;20011;-78
2022/11/27 05:29:52;;;;;;;0.00;0.00;;;;;;;12.01;100.00;100196.31;6217562;22;20035;-78
2022/11/27 05:32:20;;;;;;;0.00;0.00;;;;;;;12.01;100.00;100190.84;6240156;22;20014;-77
2022/11/27 05:34:48;;;;;;;0.00;0.00;;;;;;;11.99;100.00;100182.09;6269657;22;20431;-77
2022/11/27 05:37:14;;;;;;;0.00;0.00;;;;;;;11.95;100.00;100170.03;6266910;22;20012;-76
2022/11/27 05:39:39;;;;;;;0.00;0.00;;;;;;;11.94;100.00;100162.91;6270182;22;20090;-77
2022/11/27 05:42:05;;;;;;;0.00;0.00;;;;;;;11.90;100.00;100167.31;6266336;22;20037;-77
2022/11/27 05:44:30;;;;;;;0.00;0.00;;;;;;;11.86;100.00;100171.72;6242046;22;20008;-76
2022/11/27 05:47:05;;;;;;;0.00;0.00;;;;;;;11.84;100.00;100177.47;6242810;22;20086;-77
2022/11/27 05:49:38;;;;;;;0.00;0.00;;;;;;;11.86;100.00;100185.41;6264570;22;20944;-78
2022/11/27 05:52:03;;;;;;;0.00;0.00;;;;;;;11.80;100.00;100178.31;6269168;22;20094;-78
2022/11/27 05:54:29;;;;;;;0.00;0.00;;;;;;;11.78;100.00;100175.03;6238115;22;20375;-79
2022/11/27 05:56:54;;;;;;;0.00;0.00;;;;;;;11.82;100.00;100198.84;6269063;22;20323;-78
2022/11/27 05:59:20;;;;;;;0.00;0.00;;;;;;;11.85;100.00;100181.03;6238848;22;20007;-79
2022/11/27 06:01:48;;;;;;;0.00;0.00;;;;;;;11.83;100.00;100172.28;6269224;22;20081;-78
2022/11/27 06:04:13;;;;;;;0.00;0.00;;;;;;;11.75;100.00;100153.69;6266088;22;20072;-77
2022/11/27 06:06:44;;;;;;;0.00;0.00;;;;;;;11.68;100.00;100123.84;6215258;22;20086;-78
2022/11/27 06:09:09;;;;;;;0.00;0.00;;;;;;;11.65;100.00;100127.13;6270105;22;20004;-79
2022/11/27 06:11:35;;;;;;;0.00;0.00;;;;;;;11.63;100.00;100130.16;6239828;22;20011;-79
2022/11/27 06:14:02;;;;;;;0.00;0.00;;;;;;;11.60;100.00;100129.91;6266023;22;20003;-78
2022/11/27 06:16:30;;;;;;;0.00;0.00;;;;;;;11.57;100.00;100136.75;6214402;22;20004;-78
2022/11/27 06:18:58;;;;;;;0.00;0.00;;;;;;;11.60;100.00;100152.63;6267844;22;20011;-77
2022/11/27 06:21:23;;;;;;;0.00;0.00;;;;;;;11.62;100.00;100161.41;6263625;22;20019;-77
2022/11/27 06:23:54;;;;;;;0.00;0.00;;;;;;;11.60;100.00;100163.59;6238266;22;20061;-78
2022/11/27 06:26:38;;;;;;;0.00;0.00;;;;;;;11.63;100.00;100163.03;6265675;22;20004;-78
2022/11/27 06:29:03;;;;;;;0.00;0.00;;;;;;;11.60;100.00;100157.28;6240671;22;20084;-76
2022/11/27 06:31:36;;;;;;;0.00;0.00;;;;;;;11.60;100.00;100147.16;6269507;22;20051;-78
2022/11/27 06:34:03;;;;;;;0.00;0.00;;;;;;;11.56;100.00;100107.72;6259061;22;20012;-78
2022/11/27 06:36:31;;;;;;;0.00;0.00;;;;;;;11.57;100.00;100103.91;6268979;22;20004;-78
2022/11/27 06:38:57;;;;;;;0.00;0.00;;;;;;;11.56;100.00;100118.69;6263393;22;20146;-79
2022/11/27 06:41:25;;;;;;;0.00;0.00;;;;;;;11.53;100.00;100119.25;6268635;22;20077;-77
2022/11/27 06:43:51;;;;;;;0.00;0.00;;;;;;;11.53;100.00;100130.19;6266230;22;20011;-78
2022/11/27 06:46:18;;;;;;;0.00;0.00;;;;;;;11.52;100.00;100125.81;6267329;22;20079;-77
2022/11/27 06:48:45;;;;;;;0.00;0.00;;;;;;;11.54;100.00;100131.84;6269415;22;20008;-79
2022/11/27 06:51:14;;;;;;;0.00;0.00;;;;;;;11.60;100.00;100125.25;6237621;22;20078;-78
2022/11/27 06:53:40;;;;;;;0.00;0.00;;;;;;;11.58;100.00;100118.41;6269238;22;19996;-77
2022/11/27 06:56:08;;;;;;;0.00;0.00;;;;;;;11.60;100.00;100119.75;6238466;22;20011;-79
2022/11/27 06:58:34;;;;;;;0.00;0.00;;;;;;;11.63;100.00;100130.16;6267635;22;20010;-78
2022/11/27 07:01:01;;;;;;;0.00;0.00;;;;;;;11.69;100.00;100134.50;6264872;22;20000;-77
2022/11/27 07:03:27;;;;;;;0.00;0.00;;;;;;;11.72;100.00;100137.81;6270161;22;20006;-77
2022/11/27 07:05:52;;;;;;;0.00;0.00;;;;;;;11.68;100.00;100138.38;6267696;22;20007;-78
2022/11/27 07:08:21;;;;;;;0.00;0.00;;;;;;;11.71;100.00;100128.78;6266120;22;20010;-78
2022/11/27 07:10:49;;;;;;;0.00;0.00;;;;;;;11.67;100.00;100133.16;6271423;22;20027;-77
2022/11/27 07:13:14;;;;;;;0.00;0.00;;;;;;;11.65;100.00;100149.88;6239703;22;20067;-78
2022/11/27 07:15:44;;;;;;;0.00;0.00;;;;;;;11.53;100.00;100163.06;6270330;22;20004;-76
2022/11/27 07:18:12;;;;;;;0.00;0.00;;;;;;;11.37;100.00;100158.72;6240727;22;20031;-78
2022/11/27 07:20:38;;;;;;;0.00;0.00;;;;;;;11.23;100.00;100156.59;6245786;22;20011;-77
2022/11/27 07:23:03;;;;;;;0.00;0.00;;;;;;;11.21;100.00;100161.50;6238772;22;20338;-78
2022/11/27 07:25:28;;;;;;;0.00;0.00;;;;;;;11.08;100.00;100159.34;6269169;22;20004;-76
2022/11/27 07:27:54;;;;;;;0.00;0.00;;;;;;;11.06;100.00;100161.53;6219152;22;20086;-78
2022/11/27 07:30:20;;;;;;;0.00;0.00;;;;;;;10.95;100.00;100164.28;6263773;22;20024;-79
2022/11/27 07:32:45;;;;;;;0.00;0.00;;;;;;;10.97;100.00;100166.75;6270336;22;20366;-77
2022/11/27 07:35:13;;;;;;;0.00;0.00;;;;;;;10.89;100.00;100154.41;6242587;22;20007;-78
2022/11/27 07:37:41;;;;;;;0.00;0.00;;;;;;;10.82;100.00;100151.16;6264001;22;19999;-75
2022/11/27 07:40:09;;;;;;;0.00;0.00;;;;;;;10.72;100.00;100137.47;6268912;22;20061;-77
2022/11/27 07:42:45;;;;;;;;;;;;;;;;;;;;;
2022/11/27 07:45:11;;;;;;;0.00;0.00;;;;;;;10.69;100.00;100138.00;6271447;22;20083;-76
2022/11/27 07:47:43;;;;;;;0.00;0.00;;;;;;;10.65;100.00;100144.03;6264511;22;20393;-76
2022/11/27 07:50:09;;;;;;;0.00;0.00;;;;;;;10.62;100.00;100141.84;6270934;22;20337;-77
2022/11/27 07:52:38;;;;;;;0.00;0.00;;;;;;;10.63;100.00;100146.22;6243558;22;20035;-78
2022/11/27 07:55:06;;;;;;;0.00;0.00;;;;;;;10.64;100.00;100157.97;6274338;22;20052;-77
2022/11/27 07:57:32;;;;;;;0.00;0.00;;;;;;;10.67;100.00;100160.16;6240815;22;20430;-76
2022/11/27 08:00:00;;;;;;;0.00;0.00;;;;;;;10.64;100.00;100153.34;6243947;22;20018;-76
2022/11/27 08:02:25;;;;;;;0.00;0.00;;;;;;;10.63;100.00;100157.16;6245827;22;20011;-76
2022/11/27 08:04:51;;;;;;;0.00;0.00;;;;;;;10.62;100.00;100154.72;6267430;22;20008;-76
2022/11/27 08:07:16;;;;;;;0.00;0.00;;;;;;;10.64;100.00;100158.81;6270256;22;20055;-76
2022/11/27 08:09:44;;;;;;;0.00;0.00;;;;;;;10.61;100.00;100148.41;6262584;22;20094;-77
2022/11/27 08:12:12;;;;;;;0.00;0.00;;;;;;;10.69;100.00;100151.69;6271649;22;19996;-78
2022/11/27 08:15:07;;;;;;;0.00;0.00;;;;;;;10.61;100.00;100142.94;6242156;22;20015;-76
2022/11/27 08:17:35;;;;;;;0.00;0.00;;;;;;;10.73;100.00;100156.38;6246820;22;20010;-76
2022/11/27 08:20:02;;;;;;;0.00;0.00;;;;;;;10.61;100.00;100144.84;6267103;22;20057;-79
2022/11/27 08:22:35;;;;;;;0.00;0.00;;;;;;;10.60;100.00;100146.78;6271351;22;19999;-78
2022/11/27 08:25:20;;;;;;;0.00;0.00;;;;;;;10.69;100.00;100155.25;6267458;22;20004;-76
2022/11/27 08:27:47;;;;;;;0.00;0.00;;;;;;;10.73;100.00;100171.94;6272196;22;20441;-77
2022/11/27 08:30:13;;;;;;;0.00;0.00;;;;;;;10.79;100.00;100192.72;6270224;22;20027;-77
2022/11/27 08:32:42;;;;;;;0.00;0.00;;;;;;;10.88;100.00;100191.09;6270984;22;20003;-77
2022/11/27 08:35:10;;;;;;;0.00;0.00;;;;;;;10.84;100.00;100179.06;6271928;22;19995;-77
2022/11/27 08:37:36;;;;;;;0.00;0.00;;;;;;;10.84;100.00;100170.84;6245244;22;20745;-77
2022/11/27 08:40:02;;;;;;;0.00;0.00;;;;;;;10.94;100.00;100191.91;6270194;22;20003;-79
2022/11/27 08:42:30;;;;;;;0.00;0.00;;;;;;;10.94;100.00;100190.00;6241041;22;20018;-78
2022/11/27 08:44:58;;;;;;;0.00;0.00;;;;;;;10.97;100.00;100183.16;6272704;22;20008;-78
2022/11/27 08:47:23;;;;;;;0.00;0.00;;;;;;;10.97;100.00;100167.56;6220886;22;20008;-78
2022/11/27 08:49:49;;;;;;;0.00;0.00;;;;;;;11.07;100.00;100180.41;6272246;22;20011;-78
2022/11/27 08:52:14;;;;;;;0.00;0.00;;;;;;;11.08;100.00;100162.06;6244478;22;20027;-75
2022/11/27 08:54:40;;;;;;;0.00;0.00;;;;;;;11.11;100.00;100147.81;6269558;22;20013;-77
2022/11/27 08:57:08;;;;;;;0.00;0.00;;;;;;;11.17;100.00;100150.28;6273017;22;20330;-76
2022/11/27 08:59:38;;;;;;;0.00;0.00;;;;;;;11.20;100.00;100139.88;6268323;22;20381;-76
2022/11/27 09:02:03;;;;;;;0.00;0.00;;;;;;;11.24;100.00;100106.19;6267522;22;20748;-77
2022/11/27 09:04:32;;;;;;;0.00;0.00;;;;;;;11.52;100.00;100106.66;6265639;22;20094;-77
2022/11/27 09:07:13;;;;;;;0.00;0.00;;;;;;;11.63;100.00;100102.78;6247129;22;20004;-78
2022/11/27 09:09:39;;;;;;;0.00;0.00;;;;;;;11.69;100.00;100101.63;6270073;22;20363;-77
2022/11/27 09:12:05;;;;;;;0.00;0.00;;;;;;;11.87;100.00;100102.09;6271845;22;20066;-77
2022/11/27 09:14:30;;;;;;;0.00;0.00;;;;;;;12.07;100.00;100138.75;6271959;22;20433;-77
2022/11/27 09:16:58;;;;;;;0.00;0.00;;;;;;;12.01;100.00;100132.47;6244407;22;20434;-78
2022/11/27 09:19:26;;;;;;;0.00;0.00;;;;;;;12.08;100.00;100113.00;6271730;22;19999;-77
2022/11/27 09:24:37;;;;;;;0.00;0.00;;;;;;;12.20;100.00;100100.56;6245709;22;20011;-77
2022/11/27 09:27:35;;;;;;;0.00;0.00;;;;;;;12.23;100.00;100091.75;6264379;22;20423;-75
2022/11/27 09:30:01;;;;;;;0.00;0.00;;;;;;;12.34;100.00;100106.22;6261048;22;20073;-77
2022/11/27 09:32:26;;;;;;;0.00;0.00;;;;;;;12.45;100.00;100117.13;6265929;22;20075;-77
2022/11/27 09:34:52;;;;;;;0.00;0.00;;;;;;;12.29;100.00;100103.50;6241963;22;20000;-76
2022/11/27 09:37:17;;;;;;;0.00;0.00;;;;;;;12.20;100.00;100099.75;6238362;22;21056;-78
2022/11/27 09:39:42;;;;;;;0.00;0.00;;;;;;;12.15;100.00;100118.94;6241889;22;20011;-77
2022/11/27 09:42:17;;;;;;;0.00;0.00;;;;;;;12.14;100.00;100109.91;6238840;22;20390;-79
2022/11/27 09:44:47;;;;;;;0.00;0.00;;;;;;;12.10;100.00;100111.59;6271439;22;19999;-77
2022/11/27 09:47:20;;;;;;;0.00;0.00;;;;;;;12.15;100.00;100108.00;6265761;22;20003;-77
2022/11/27 09:50:02;;;;;;;0.00;0.00;;;;;;;12.11;100.00;100101.47;6268598;22;20597;-78
2022/11/27 09:53:05;;;;;;;0.00;0.00;;;;;;;12.23;100.00;100115.63;6263959;22;19995;-77
2022/11/27 09:55:40;;;;;;;0.00;0.00;;;;;;;12.37;100.00;100122.09;6239976;22;20000;-76
2022/11/27 09:58:35;;;;;;;0.00;0.00;;;;;;;12.45;100.00;100117.91;6265709;22;20422;-77
2022/11/27 10:01:08;;;;;;;0.00;0.00;;;;;;;12.52;100.00;100112.13;6261778;22;20562;-80
2022/11/27 10:03:36;;;;;;;0.00;0.00;;;;;;;12.63;100.00;100104.63;6271229;22;20458;-77
2022/11/27 10:06:05;;;;;;;0.00;0.00;;;;;;;12.64;100.00;100114.50;6219722;22;20011;-79
2022/11/27 10:09:06;;;;;;;0.00;0.00;;;;;;;12.50;100.00;100097.88;6271309;22;20009;-80
2022/11/27 10:14:45;;;;;;;0.00;0.00;;;;;;;12.61;100.00;100113.13;6243315;22;20372;-79
2022/11/27 10:17:45;;;;;;;;;;;;;;;;;;;;;
2022/11/27 10:20:32;;;;;;;0.00;0.00;;;;;;;12.68;100.00;100112.81;6262714;22;20445;-79
2022/11/27 10:23:54;;;;;;;;;;;;;;;;;;;;;
2022/11/27 10:26:44;;;;;;;0.00;0.00;;;;;;;12.85;100.00;100126.94;6253432;22;20485;-77
2022/11/27 10:29:43;;;;;;;0.00;0.00;;;;;;;13.03;100.00;100127.31;6269272;22;21883;-80
2022/11/27 10:32:16;;;;;;;0.00;0.00;;;;;;;13.19;100.00;100136.22;6266704;22;20422;-79
2022/11/27 10:34:53;;;;;;;0.00;0.00;;;;;;;13.27;100.00;100144.63;6273973;22;20010;-78
2022/11/27 10:37:59;;;;;;;0.00;0.00;;;;;;;13.28;100.00;100134.47;6270606;22;20008;-79
2022/11/27 10:41:05;;;;;;;0.00;0.00;;;;;;;13.42;100.00;100132.69;6220683;22;20003;-77
2022/11/27 10:43:31;;;;;;;0.00;0.00;;;;;;;13.55;100.00;100130.34;6273623;22;20026;-79
2022/11/27 10:46:03;;;;;;;0.00;0.00;;;;;;;13.74;100.00;100125.72;6217603;22;20094;-79
2022/11/27 10:48:28;;;;;;;0.00;0.00;;;;;;;13.84;100.00;100113.75;6267826;22;20014;-78
2022/11/27 10:50:54;;;;;;;0.00;0.00;;;;;;;14.01;100.00;100118.75;6262432;22;20836;-77
2022/11/27 10:53:35;;;;;;;0.00;0.00;;;;;;;14.17;100.00;100124.03;6269467;22;20010;-80
2022/11/27 10:56:10;;;;;;;0.00;0.00;;;;;;;14.22;100.00;100112.94;6264350;22;20052;-79
2022/11/27 10:59:04;;;;;;;0.00;0.00;;;;;;;14.31;100.00;100097.44;6269686;22;20031;-78
2022/11/27 11:01:48;;;;;;;0.00;0.00;;;;;;;14.56;100.00;100109.13;6267685;22;20012;-78
2022/11/27 11:04:18;;;;;;;0.00;0.00;;;;;;;14.60;100.00;100090.88;6266096;22;20003;-79
2022/11/27 11:06:50;;;;;;;0.00;0.00;;;;;;;14.48;100.00;100099.63;6270547;22;20034;-78
2022/11/27 11:09:31;;;;;;;0.00;0.00;;;;;;;14.37;100.00;100098.97;6269830;22;20335;-78
2022/11/27 11:12:19;;;;;;;0.00;0.00;;;;;;;14.42;100.00;100096.13;6270186;22;20042;-79
2022/11/27 11:15:22;;;;;;;0.00;0.00;;;;;;;14.25;100.00;100096.69;6266472;22;20011;-79
2022/11/27 11:17:48;;;;;;;0.00;0.00;;;;;;;14.14;100.00;100101.50;6272614;22;20008;-82
2022/11/27 11:20:29;;;;;;;0.00;0.00;;;;;;;14.18;100.00;100096.25;6272874;22;20150;-78
2022/11/27 11:22:55;;;;;;;0.00;0.00;;;;;;;14.23;100.00;100087.91;6275746;22;20099;-80
2022/11/27 11:25:25;;;;;;;0.00;0.00;;;;;;;14.23;100.00;100076.09;6244812;22;20083;-77
2022/11/27 11:27:51;;;;;;;0.00;0.00;;;;;;;14.20;100.00;100076.69;6271491;22;20493;-76
2022/11/27 11:30:23;;;;;;;0.00;0.00;;;;;;;14.31;100.00;100078.19;6239667;22;20047;-76
2022/11/27 11:32:55;;;;;;;0.00;0.00;;;;;;;14.28;100.00;100078.75;6277078;22;20420;-76
2022/11/27 11:35:34;;;;;;;0.00;0.00;;;;;;;14.23;100.00;100076.91;6252513;22;20030;-77
2022/11/27 11:38:01;;;;;;;0.00;0.00;;;;;;;14.05;100.00;100053.81;6280798;22;20007;-75
2022/11/27 11:40:44;;;;;;;0.00;0.00;;;;;;;14.01;100.00;100052.78;6278113;22;20005;-79
2022/11/27 11:43:25;;;;;;;0.00;0.00;;;;;;;13.84;100.00;100061.53;6272944;22;20003;-76
2022/11/27 11:46:02;;;;;;;0.00;0.00;;;;;;;13.69;100.00;100057.06;6265661;22;20008;-79
2022/11/27 11:48:28;;;;;;;0.00;0.00;;;;;;;13.66;100.00;100041.19;6275067;22;20003;-81